createdAt,value
2017-06-12T00:02:23.694Z,24.20
2017-06-12T00:04:51.887Z,24.20
2017-06-12T00:07:20.072Z,24.20
2017-06-12T00:09:48.271Z,24.20
2017-06-12T00:12:16.449Z,24.20
2017-06-12T00:14:44.627Z,24.20
2017-06-12T00:17:12.826Z,24.20
2017-06-12T00:19:41.007Z,24.20
2017-06-12T00:22:09.185Z,24.30
2017-06-12T00:24:37.393Z,24.20
2017-06-12T00:27:06.335Z,24.30
2017-06-12T00:29:34.503Z,24.20
2017-06-12T00:32:02.704Z,24.30
2017-06-12T00:34:30.890Z,24.20
2017-06-12T00:36:59.059Z,24.20
2017-06-12T00:39:27.251Z,24.30
2017-06-12T00:41:55.434Z,24.30
2017-06-12T00:44:24.371Z,24.20
2017-06-12T00:46:52.579Z,24.30
2017-06-12T00:49:20.759Z,24.30
2017-06-12T00:51:48.939Z,24.20
2017-06-12T00:54:17.143Z,24.20
2017-06-12T00:56:46.079Z,24.20
2017-06-12T00:59:14.254Z,24.20
2017-06-12T01:01:42.455Z,24.20
2017-06-12T01:04:10.707Z,24.20
2017-06-12T01:06:38.887Z,24.20
2017-06-12T01:09:07.092Z,24.20
2017-06-12T01:11:35.271Z,24.20
2017-06-12T01:14:04.212Z,24.20
2017-06-12T01:16:32.417Z,24.20
2017-06-12T01:19:00.587Z,24.20
2017-06-12T01:21:28.255Z,24.20
2017-06-12T01:23:56.448Z,24.20
2017-06-12T01:26:24.623Z,24.20
2017-06-12T01:28:53.566Z,24.30
2017-06-12T01:31:21.583Z,24.30
2017-06-12T01:33:49.758Z,24.30
2017-06-12T01:36:17.939Z,24.30
2017-06-12T01:38:46.140Z,24.30
2017-06-12T01:41:14.307Z,24.20
2017-06-12T01:43:42.489Z,24.30
2017-06-12T01:46:11.454Z,24.20
2017-06-12T01:48:40.386Z,24.20
2017-06-12T01:51:08.566Z,24.20
2017-06-12T01:53:36.779Z,24.20
2017-06-12T01:56:04.953Z,24.20
2017-06-12T01:58:33.126Z,24.20
2017-06-12T02:01:01.327Z,24.20
2017-06-12T02:03:30.267Z,24.20
2017-06-12T02:05:58.563Z,24.20
2017-06-12T02:08:27.535Z,24.20
2017-06-12T02:10:56.564Z,24.20
2017-06-12T02:13:24.727Z,24.20
2017-06-12T02:15:52.926Z,24.20
2017-06-12T02:18:21.872Z,24.20
2017-06-12T02:20:50.154Z,24.20
2017-06-12T02:23:19.127Z,24.20
2017-06-12T02:25:47.298Z,24.20
2017-06-12T02:28:16.249Z,24.20
2017-06-12T02:30:44.447Z,24.20
2017-06-12T02:33:12.620Z,24.20
2017-06-12T02:35:40.799Z,24.20
2017-06-12T02:38:09.007Z,24.20
2017-06-12T02:40:37.187Z,24.20
2017-06-12T02:43:05.363Z,24.20
2017-06-12T02:45:34.322Z,24.20
2017-06-12T02:48:02.507Z,24.20
2017-06-12T02:50:31.443Z,24.20
2017-06-12T02:52:59.639Z,24.20
2017-06-12T02:55:27.818Z,24.20
2017-06-12T02:57:56.003Z,24.20
2017-06-12T03:00:24.202Z,24.20
2017-06-12T03:02:53.143Z,24.20
2017-06-12T03:05:21.318Z,24.20
2017-06-12T03:07:49.727Z,24.20
2017-06-12T03:10:29.239Z,24.20
2017-06-12T03:12:57.456Z,24.20
2017-06-12T03:15:25.636Z,24.20
2017-06-12T03:17:54.574Z,24.20
2017-06-12T03:20:22.782Z,24.20
2017-06-12T03:22:50.954Z,24.20
2017-06-12T03:25:19.130Z,24.20
2017-06-12T03:27:47.323Z,24.20
2017-06-12T03:30:15.499Z,24.20
2017-06-12T03:32:44.438Z,24.20
2017-06-12T03:35:12.634Z,24.20
2017-06-12T03:37:41.575Z,24.20
2017-06-12T03:40:10.267Z,24.20
2017-06-12T03:42:38.474Z,24.20
2017-06-12T03:45:06.653Z,24.30
2017-06-12T03:47:35.588Z,24.20
2017-06-12T03:50:03.791Z,24.20
2017-06-12T03:52:31.963Z,24.20
2017-06-12T03:55:00.139Z,24.20
2017-06-12T03:57:28.343Z,24.20
2017-06-12T03:59:57.289Z,24.20
2017-06-12T04:02:25.459Z,24.20
2017-06-12T04:04:53.667Z,24.20
2017-06-12T04:07:21.861Z,24.20
2017-06-12T04:09:50.662Z,24.20
2017-06-12T04:12:19.635Z,24.20
2017-06-12T04:14:47.807Z,24.20
2017-06-12T04:17:15.994Z,24.20
2017-06-12T04:19:44.191Z,24.20
2017-06-12T04:22:12.371Z,24.20
2017-06-12T04:24:41.354Z,24.20
2017-06-12T04:27:10.319Z,24.20
2017-06-12T04:29:38.490Z,24.20
2017-06-12T04:32:07.435Z,24.20
2017-06-12T04:34:35.635Z,24.20
2017-06-12T04:37:03.806Z,24.20
2017-06-12T04:39:31.978Z,24.20
2017-06-12T04:42:00.176Z,24.20
2017-06-12T04:44:28.395Z,24.20
2017-06-12T04:46:56.563Z,24.20
2017-06-12T04:49:25.543Z,24.20
2017-06-12T04:51:54.486Z,24.20
2017-06-12T04:54:22.412Z,24.10
2017-06-12T04:56:50.610Z,24.00
2017-06-12T04:59:18.783Z,23.90
2017-06-12T05:01:47.724Z,23.80
2017-06-12T05:04:15.927Z,23.70
2017-06-12T05:06:44.102Z,23.70
2017-06-12T05:09:12.280Z,23.70
2017-06-12T05:11:40.491Z,23.60
2017-06-12T05:14:09.442Z,23.60
2017-06-12T05:16:37.619Z,23.60
2017-06-12T05:19:06.595Z,23.60
2017-06-12T05:21:35.539Z,23.50
2017-06-12T05:24:03.710Z,23.50
2017-06-12T05:26:31.971Z,23.50
2017-06-12T05:29:00.155Z,23.50
2017-06-12T05:31:29.112Z,23.40
2017-06-12T05:33:57.319Z,23.40
2017-06-12T05:36:25.499Z,23.50
2017-06-12T05:38:54.443Z,23.60
2017-06-12T05:41:22.454Z,23.60
2017-06-12T05:43:50.671Z,23.60
2017-06-12T05:46:18.852Z,23.70
2017-06-12T05:48:47.818Z,23.70
2017-06-12T05:51:16.759Z,23.70
2017-06-12T05:53:44.944Z,23.70
2017-06-12T05:56:13.153Z,23.70
2017-06-12T05:58:41.150Z,23.70
2017-06-12T06:01:09.344Z,23.80
2017-06-12T06:03:37.550Z,23.70
2017-06-12T06:06:05.474Z,23.60
2017-06-12T06:08:33.662Z,23.50
2017-06-12T06:11:01.859Z,23.50
2017-06-12T06:13:30.812Z,23.60
2017-06-12T06:15:59.114Z,23.60
2017-06-12T06:18:27.321Z,23.60
2017-06-12T06:20:55.498Z,23.60
2017-06-12T06:23:24.463Z,23.70
2017-06-12T06:25:52.663Z,23.70
2017-06-12T06:28:20.866Z,23.80
2017-06-12T06:30:49.050Z,23.80
2017-06-12T06:33:18.015Z,23.80
2017-06-12T06:35:46.202Z,23.80
2017-06-12T06:38:15.142Z,23.80
2017-06-12T06:40:43.359Z,23.80
2017-06-12T06:43:11.539Z,23.80
2017-06-12T06:45:39.721Z,23.80
2017-06-12T06:48:08.099Z,23.80
2017-06-12T06:50:36.284Z,23.80
2017-06-12T06:53:04.459Z,23.80
2017-06-12T06:55:32.671Z,23.80
2017-06-12T06:58:01.631Z,23.80
2017-06-12T07:00:29.823Z,23.80
2017-06-12T07:02:58.163Z,23.80
2017-06-12T07:05:33.555Z,23.80
2017-06-12T07:08:02.280Z,23.80
2017-06-12T07:10:30.475Z,23.90
2017-06-12T07:12:58.655Z,23.90
2017-06-12T07:15:26.861Z,23.90
2017-06-12T07:17:55.040Z,23.90
2017-06-12T07:20:23.227Z,23.90
2017-06-12T07:22:51.439Z,23.90
2017-06-12T07:25:19.625Z,23.90
2017-06-12T07:27:47.814Z,23.90
2017-06-12T07:30:16.018Z,23.90
2017-06-12T07:32:44.199Z,23.90
2017-06-12T07:35:12.378Z,24.00
2017-06-12T07:37:40.579Z,23.90
2017-06-12T07:40:08.967Z,23.90
2017-06-12T07:42:37.139Z,23.90
2017-06-12T07:45:05.349Z,23.90
2017-06-12T07:47:33.531Z,24.00
2017-06-12T07:50:01.719Z,24.00
2017-06-12T07:52:29.915Z,23.90
2017-06-12T07:54:58.866Z,23.90
2017-06-12T07:57:27.046Z,23.80
2017-06-12T07:59:56.039Z,23.80
2017-06-12T08:02:24.215Z,23.80
2017-06-12T08:04:52.204Z,23.70
2017-06-12T08:07:20.415Z,23.70
2017-06-12T08:09:48.598Z,23.70
2017-06-12T08:12:16.784Z,23.60
2017-06-12T08:14:45.000Z,23.60
2017-06-12T08:17:13.172Z,23.60
2017-06-12T08:19:41.640Z,23.50
2017-06-12T08:22:09.830Z,23.50
2017-06-12T08:24:38.007Z,23.50
2017-06-12T08:27:07.779Z,23.50
2017-06-12T08:29:35.990Z,23.40
2017-06-12T08:32:04.166Z,23.50
2017-06-12T08:34:32.346Z,23.40
2017-06-12T08:37:00.555Z,23.40
2017-06-12T08:39:28.731Z,23.40
2017-06-12T08:41:56.907Z,23.40
2017-06-12T08:44:25.112Z,23.40
2017-06-12T08:46:54.055Z,23.40
2017-06-12T08:49:22.240Z,23.40
2017-06-12T08:51:51.218Z,23.40
2017-06-12T08:54:20.155Z,23.30
2017-06-12T08:56:48.334Z,23.30
2017-06-12T08:59:16.854Z,23.40
2017-06-12T09:01:45.039Z,23.40
2017-06-12T09:04:13.218Z,23.40
2017-06-12T09:06:41.427Z,23.40
2017-06-12T09:09:09.598Z,23.40
2017-06-12T09:11:37.775Z,23.30
2017-06-12T09:14:06.751Z,23.30
2017-06-12T09:16:35.692Z,23.30
2017-06-12T09:19:03.862Z,23.20
2017-06-12T09:21:32.078Z,23.30
2017-06-12T09:24:00.260Z,23.20
2017-06-12T09:26:28.447Z,23.20
2017-06-12T09:28:56.659Z,23.20
2017-06-12T09:31:24.839Z,23.20
2017-06-12T09:33:53.014Z,23.20
2017-06-12T09:36:21.248Z,23.20
2017-06-12T09:38:49.427Z,23.10
2017-06-12T09:41:17.635Z,23.10
2017-06-12T09:43:45.849Z,23.10
2017-06-12T09:46:14.031Z,23.10
2017-06-12T09:48:42.206Z,23.10
2017-06-12T09:51:10.411Z,23.10
2017-06-12T10:01:19.899Z,25.80
2017-06-12T10:03:48.143Z,29.00
2017-06-12T10:06:16.379Z,29.50
2017-06-12T10:08:45.419Z,25.70
2017-06-12T10:11:13.654Z,25.70
2017-06-12T10:13:41.925Z,25.40
2017-06-12T10:16:10.192Z,25.20
2017-06-12T10:18:38.426Z,25.20
2017-06-12T10:21:06.667Z,25.40
2017-06-12T10:23:34.947Z,25.50
2017-06-12T10:26:03.192Z,26.10
2017-06-12T10:28:31.435Z,26.00
2017-06-12T10:31:00.479Z,25.60
2017-06-12T10:33:28.723Z,25.60
2017-06-12T10:35:56.970Z,25.60
2017-06-12T10:38:25.240Z,25.60
2017-06-12T10:40:53.478Z,25.60
2017-06-12T10:43:21.731Z,25.60
2017-06-12T10:45:50.011Z,25.60
2017-06-12T10:48:18.243Z,25.60
2017-06-12T10:50:46.486Z,25.60
2017-06-12T10:53:15.534Z,25.60
2017-06-12T10:55:43.960Z,25.50
2017-06-12T10:58:12.203Z,25.70
2017-06-12T11:00:40.467Z,25.80
2017-06-12T11:03:08.707Z,26.00
2017-06-12T11:05:37.712Z,26.00
2017-06-12T11:08:06.146Z,26.00
2017-06-12T11:10:34.971Z,26.10
2017-06-12T11:13:03.210Z,26.00
2017-06-12T11:15:31.503Z,26.10
2017-06-12T11:17:59.767Z,26.20
2017-06-12T11:20:27.906Z,26.20
2017-06-12T11:22:56.001Z,26.00
2017-06-12T11:25:32.207Z,25.50
2017-06-12T11:28:00.471Z,25.20
2017-06-12T11:30:28.528Z,25.10
2017-06-12T11:32:56.758Z,25.00
2017-06-12T11:35:25.020Z,25.00
2017-06-12T11:37:53.274Z,24.90
2017-06-12T11:40:21.502Z,24.90
2017-06-12T11:42:50.535Z,25.00
2017-06-12T11:45:18.770Z,24.90
2017-06-12T11:47:47.006Z,24.90
2017-06-12T11:50:16.055Z,25.00
2017-06-12T11:52:44.300Z,25.00
2017-06-12T11:55:12.539Z,25.00
2017-06-12T11:57:40.804Z,25.00
2017-06-12T12:00:09.435Z,25.00
2017-06-12T12:02:38.439Z,25.00
2017-06-12T12:05:06.717Z,25.00
2017-06-12T12:07:35.018Z,25.00
2017-06-12T12:10:03.258Z,25.00
2017-06-12T12:12:31.559Z,24.90
2017-06-12T12:14:59.813Z,25.00
2017-06-12T12:17:28.058Z,24.90
2017-06-12T12:19:57.190Z,24.90
2017-06-12T12:22:25.431Z,24.90
2017-06-12T12:24:53.678Z,24.90
2017-06-12T12:27:21.935Z,24.90
2017-06-12T12:29:50.227Z,24.90
2017-06-12T12:32:18.502Z,24.90
2017-06-12T12:34:46.802Z,24.90
2017-06-12T12:37:16.031Z,24.90
2017-06-12T12:39:44.289Z,24.90
2017-06-12T12:42:12.585Z,24.90
2017-06-12T12:44:40.818Z,25.00
2017-06-12T12:47:09.062Z,25.00
2017-06-12T12:49:37.415Z,25.00
2017-06-12T12:52:05.715Z,24.90
2017-06-12T12:54:33.955Z,24.90
2017-06-12T12:57:02.319Z,24.90
2017-06-12T12:59:30.593Z,25.00
2017-06-12T13:01:58.873Z,25.00
2017-06-12T13:04:27.988Z,24.90
2017-06-12T13:06:56.259Z,25.00
2017-06-12T13:09:24.570Z,24.90
2017-06-12T13:11:52.843Z,24.90
2017-06-12T13:14:21.873Z,25.00
2017-06-12T13:16:50.151Z,25.00
2017-06-12T13:19:18.443Z,25.20
2017-06-12T13:21:47.739Z,25.40
2017-06-12T13:24:16.051Z,25.40
2017-06-12T13:26:44.330Z,25.50
2017-06-12T13:29:12.589Z,25.60
2017-06-12T13:31:40.858Z,25.60
2017-06-12T13:34:09.936Z,25.30
2017-06-12T13:36:38.960Z,25.20
2017-06-12T13:39:07.209Z,25.20
2017-06-12T13:41:35.491Z,25.20
2017-06-12T13:44:03.731Z,25.10
2017-06-12T13:46:31.971Z,25.10
2017-06-12T13:49:00.239Z,25.10
2017-06-12T13:51:28.485Z,25.20
2017-06-12T13:53:57.507Z,25.40
2017-06-12T13:56:25.796Z,25.40
2017-06-12T13:58:54.039Z,25.90
2017-06-12T14:01:22.327Z,26.30
2017-06-12T14:03:50.615Z,26.50
2017-06-12T14:06:19.009Z,26.70
2017-06-12T14:09:02.403Z,26.80
2017-06-12T14:11:30.697Z,27.00
2017-06-12T14:13:59.005Z,27.00
2017-06-12T14:16:28.082Z,27.10
2017-06-12T14:18:56.584Z,27.10
2017-06-12T14:21:24.824Z,26.90
2017-06-12T14:23:53.106Z,26.90
2017-06-12T14:26:21.360Z,26.90
2017-06-12T14:28:49.615Z,27.00
2017-06-12T14:31:17.902Z,27.10
2017-06-12T14:33:46.151Z,27.10
2017-06-12T14:36:14.397Z,27.00
2017-06-12T14:38:42.656Z,27.00
2017-06-12T14:41:10.890Z,27.10
2017-06-12T14:43:39.143Z,27.10
2017-06-12T14:46:07.427Z,27.20
2017-06-12T14:48:35.671Z,27.20
2017-06-12T14:51:03.915Z,27.00
2017-06-12T14:53:32.954Z,26.90
2017-06-12T14:56:01.215Z,26.90
2017-06-12T14:58:29.499Z,26.90
2017-06-12T15:00:59.019Z,26.90
2017-06-12T15:03:27.267Z,26.90
2017-06-12T15:05:56.271Z,27.00
2017-06-12T15:08:24.571Z,27.00
2017-06-12T15:10:52.818Z,26.90
2017-06-12T15:13:21.068Z,26.70
2017-06-12T15:15:49.327Z,26.60
2017-06-12T15:18:17.567Z,26.50
2017-06-12T15:20:45.807Z,26.50
2017-06-12T15:23:14.071Z,26.50
2017-06-12T15:25:42.310Z,26.40
2017-06-12T15:28:11.308Z,26.30
2017-06-12T15:30:39.570Z,26.30
2017-06-12T15:33:07.851Z,26.30
2017-06-12T15:35:36.082Z,26.30
2017-06-12T15:38:04.347Z,26.30
2017-06-12T15:40:32.609Z,26.40
2017-06-12T15:43:00.842Z,26.30
2017-06-12T15:45:29.875Z,26.20
2017-06-12T15:47:58.111Z,26.20
2017-06-12T15:50:26.363Z,26.20
2017-06-12T15:52:54.640Z,26.20
2017-06-12T15:55:22.871Z,26.20
2017-06-12T15:57:51.107Z,26.10
2017-06-12T16:00:20.144Z,26.20
2017-06-12T16:02:48.379Z,26.20
2017-06-12T16:05:16.618Z,26.20
2017-06-12T16:07:44.878Z,26.10
2017-06-12T16:10:13.120Z,26.10
2017-06-12T16:12:42.126Z,26.10
2017-06-12T16:15:10.391Z,26.10
2017-06-12T16:17:38.726Z,26.10
2017-06-12T16:20:07.816Z,26.10
2017-06-12T16:22:36.090Z,26.10
2017-06-12T16:25:04.330Z,26.10
2017-06-12T16:27:33.331Z,26.10
2017-06-12T16:30:01.595Z,26.10
2017-06-12T16:32:29.842Z,26.10
2017-06-12T16:34:58.079Z,26.10
2017-06-12T16:37:27.142Z,26.10
2017-06-12T16:39:55.382Z,26.10
2017-06-12T16:42:23.623Z,26.10
2017-06-12T16:44:51.883Z,26.10
2017-06-12T16:47:20.123Z,26.10
2017-06-12T16:49:48.363Z,26.10
2017-06-12T16:52:16.622Z,26.10
2017-06-12T16:54:44.921Z,26.10
2017-06-12T16:57:13.235Z,26.10
2017-06-12T16:59:42.266Z,26.00
2017-06-12T17:02:10.514Z,26.00
2017-06-12T17:04:38.765Z,26.10
2017-06-12T17:07:07.024Z,26.10
2017-06-12T17:09:35.262Z,26.10
2017-06-12T17:12:03.507Z,26.10
2017-06-12T17:14:32.531Z,26.00
2017-06-12T17:17:00.767Z,26.00
2017-06-12T17:19:29.007Z,26.00
2017-06-12T17:21:58.043Z,26.00
2017-06-12T17:24:26.274Z,26.00
2017-06-12T17:26:54.521Z,26.00
2017-06-12T17:29:22.783Z,26.00
2017-06-12T17:31:51.014Z,26.00
2017-06-12T17:34:20.023Z,26.10
2017-06-12T17:36:48.288Z,26.10
2017-06-12T17:39:16.530Z,26.10
2017-06-12T17:41:44.771Z,26.10
2017-06-12T17:44:13.806Z,26.20
2017-06-12T17:46:42.056Z,26.10
2017-06-12T17:49:10.295Z,26.10
2017-06-12T17:51:38.556Z,26.10
2017-06-12T17:54:06.803Z,26.10
2017-06-12T17:56:35.054Z,26.10
2017-06-12T17:59:04.083Z,26.10
2017-06-12T18:01:32.333Z,26.10
2017-06-12T18:04:00.397Z,26.10
2017-06-12T18:06:28.667Z,26.10
2017-06-12T18:08:56.910Z,26.10
2017-06-12T18:11:25.147Z,26.10
2017-06-12T18:13:53.402Z,26.10
2017-06-12T18:16:21.643Z,26.10
2017-06-12T18:18:50.643Z,26.10
2017-06-12T18:21:18.902Z,26.10
2017-06-12T18:23:47.138Z,26.00
2017-06-12T18:26:15.386Z,26.00
2017-06-12T18:28:44.423Z,26.00
2017-06-12T18:31:12.659Z,26.00
2017-06-12T18:33:40.895Z,26.00
2017-06-12T18:36:09.155Z,26.00
2017-06-12T18:38:37.390Z,26.00
2017-06-12T18:41:05.631Z,26.00
2017-06-12T18:43:33.889Z,26.00
2017-06-12T18:46:56.499Z,26.30
2017-06-12T18:49:24.775Z,26.20
2017-06-12T18:52:50.363Z,26.10
2017-06-12T18:55:18.621Z,26.60
2017-06-12T18:57:46.864Z,26.70
2017-06-12T19:00:15.106Z,26.90
2017-06-12T19:02:43.374Z,27.00
2017-06-12T19:05:11.611Z,27.10
2017-06-12T19:07:39.855Z,27.10
2017-06-12T19:10:08.887Z,27.20
2017-06-12T19:12:37.123Z,27.20
2017-06-12T19:15:05.371Z,27.30
2017-06-12T19:17:33.630Z,27.20
2017-06-12T19:20:01.863Z,27.20
2017-06-12T19:22:30.122Z,27.20
2017-06-12T19:24:58.383Z,27.20
2017-06-12T19:27:26.614Z,27.20
2017-06-12T19:29:54.851Z,27.30
2017-06-12T19:32:23.127Z,27.30
2017-06-12T19:34:51.363Z,27.40
2017-06-12T19:37:19.606Z,27.40
2017-06-12T19:39:47.875Z,27.20
2017-06-12T19:42:16.106Z,27.10
2017-06-12T19:44:45.122Z,27.10
2017-06-12T19:47:13.395Z,27.10
2017-06-12T19:49:41.627Z,27.20
2017-06-12T19:52:09.873Z,27.20
2017-06-12T19:54:38.903Z,27.10
2017-06-12T19:57:07.148Z,27.10
2017-06-12T19:59:35.386Z,27.10
2017-06-12T20:02:03.655Z,27.20
2017-06-12T20:04:31.895Z,27.10
2017-06-12T20:07:00.131Z,27.10
2017-06-12T20:09:29.169Z,27.20
2017-06-12T20:11:57.406Z,27.10
2017-06-12T20:14:25.676Z,27.20
2017-06-12T20:16:53.951Z,27.10
2017-06-12T20:19:22.191Z,27.10
2017-06-12T20:21:50.427Z,27.20
2017-06-12T20:24:18.695Z,27.30
2017-06-12T20:26:46.932Z,27.50
2017-06-12T20:29:15.935Z,27.60
2017-06-12T20:31:44.208Z,27.60
2017-06-12T20:34:12.466Z,27.60
2017-06-12T20:36:40.736Z,27.60
2017-06-12T20:39:08.986Z,27.60
2017-06-12T20:41:37.226Z,27.60
2017-06-12T20:44:05.459Z,27.60
2017-06-12T20:46:34.498Z,27.70
2017-06-12T20:49:02.735Z,27.60
2017-06-12T20:51:30.975Z,27.60
2017-06-12T20:53:59.251Z,27.50
2017-06-12T20:56:27.487Z,27.70
2017-06-12T20:58:56.495Z,27.40
2017-06-12T21:01:24.760Z,27.40
2017-06-12T21:03:53.002Z,27.20
2017-06-12T21:06:21.242Z,27.30
2017-06-12T21:08:50.271Z,27.50
2017-06-12T21:11:18.507Z,27.50
2017-06-12T21:13:46.758Z,27.60
2017-06-12T21:16:15.019Z,27.60
2017-06-12T21:18:43.254Z,27.70
2017-06-12T21:21:12.259Z,27.60
2017-06-12T21:23:40.527Z,27.60
2017-06-12T21:26:08.767Z,27.60
2017-06-12T21:28:36.999Z,27.60
2017-06-12T21:31:06.027Z,27.70
2017-06-12T21:33:34.262Z,27.70
2017-06-12T21:36:02.502Z,27.70
2017-06-12T21:38:31.536Z,27.80
2017-06-12T21:40:59.770Z,27.80
2017-06-12T21:43:28.009Z,27.80
2017-06-12T21:45:56.274Z,27.80
2017-06-12T21:48:24.511Z,27.70
2017-06-12T21:50:54.219Z,27.70
2017-06-12T21:53:22.478Z,27.70
2017-06-12T21:55:50.719Z,27.80
2017-06-12T21:58:19.728Z,27.40
2017-06-12T22:00:48.000Z,27.40
2017-06-12T22:03:16.235Z,26.80
2017-06-12T22:05:44.475Z,26.10
2017-06-12T22:08:13.510Z,25.80
2017-06-12T22:10:41.753Z,25.80
2017-06-12T22:13:09.999Z,25.70
2017-06-12T22:15:38.279Z,25.50
2017-06-12T22:18:06.519Z,25.40
2017-06-12T22:20:34.760Z,25.30
2017-06-12T22:23:03.822Z,25.70
2017-06-12T22:25:32.850Z,25.90
2017-06-12T22:28:01.272Z,25.90
2017-06-12T22:30:30.299Z,26.10
2017-06-12T22:32:58.547Z,26.00
2017-06-12T22:35:26.774Z,26.20
2017-06-12T22:37:56.191Z,26.30
2017-06-12T22:40:24.449Z,26.20
2017-06-12T22:42:52.686Z,26.30
2017-06-12T22:45:20.951Z,26.40
2017-06-12T22:47:49.186Z,26.40
2017-06-12T22:50:18.195Z,26.50
2017-06-12T22:52:46.467Z,26.50
2017-06-12T22:55:14.722Z,26.50
2017-06-12T22:57:42.964Z,26.50
2017-06-12T23:00:11.859Z,26.50
2017-06-12T23:02:40.103Z,26.50
2017-06-12T23:05:08.342Z,26.60
2017-06-12T23:07:37.369Z,26.60
2017-06-12T23:10:05.603Z,26.60
2017-06-12T23:12:33.838Z,26.70
2017-06-12T23:15:02.981Z,26.70
2017-06-12T23:17:31.308Z,26.70
2017-06-12T23:19:59.894Z,26.70
2017-06-12T23:22:28.043Z,26.70
2017-06-12T23:24:56.086Z,26.70
2017-06-12T23:27:30.097Z,26.80
2017-06-12T23:29:58.383Z,26.80
2017-06-12T23:32:26.850Z,26.80
2017-06-12T23:34:55.123Z,26.80
2017-06-12T23:37:24.139Z,26.80
2017-06-12T23:39:52.379Z,26.80
2017-06-12T23:42:21.400Z,26.90
2017-06-12T23:44:49.771Z,26.90
2017-06-12T23:47:18.006Z,26.90
2017-06-12T23:49:46.263Z,26.90
2017-06-12T23:52:14.499Z,26.90
2017-06-12T23:54:42.738Z,26.90
2017-06-12T23:57:11.782Z,26.90
2017-06-12T23:59:40.015Z,26.90
